createdAt,value
2018-07-20T05:29:17.318Z,7.1
2018-07-20T05:29:33.747Z,7.3
2018-07-20T05:29:50.165Z,7.6
2018-07-20T05:30:06.585Z,7.7
2018-07-20T05:30:23.006Z,7.9
2018-07-20T05:30:39.426Z,7.9
2018-07-20T05:30:55.902Z,7.6
2018-07-20T05:31:12.309Z,7.8
2018-07-20T05:31:28.725Z,7.7
2018-07-20T05:31:45.147Z,7.8
2018-07-20T05:32:01.567Z,7.7
2018-07-20T05:32:17.988Z,7.4
2018-07-20T05:32:34.420Z,7.6
2018-07-20T05:32:50.830Z,7.9
2018-07-20T05:33:07.253Z,8
2018-07-20T05:33:23.673Z,8
2018-07-20T05:33:40.109Z,7.9
2018-07-20T05:33:56.530Z,7.8
2018-07-20T05:34:12.958Z,7.8
2018-07-20T05:34:29.378Z,8
2018-07-20T05:34:45.804Z,7.9
2018-07-20T05:35:02.223Z,8.1
2018-07-20T05:35:18.645Z,8
2018-07-20T05:35:35.073Z,7.5
2018-07-20T05:35:51.491Z,7.6
2018-07-20T05:36:07.906Z,7.5
2018-07-20T05:36:24.327Z,8
2018-07-20T05:36:40.747Z,8.1
2018-07-20T05:36:57.170Z,7.7
2018-07-20T05:37:13.597Z,8.2
2018-07-20T05:37:30.028Z,8.5
2018-07-20T05:37:46.445Z,8.1
2018-07-20T05:38:02.877Z,7.6
2018-07-20T05:38:19.319Z,7.5
2018-07-20T05:38:35.739Z,7.8
2018-07-20T05:38:52.162Z,8.1
2018-07-20T05:39:08.587Z,8.7
2018-07-20T05:39:25.007Z,8.7
2018-07-20T05:39:41.428Z,8.5
2018-07-20T05:39:57.850Z,7.8
2018-07-20T05:40:14.274Z,7.6
2018-07-20T05:40:30.694Z,7.8
2018-07-20T05:40:47.108Z,8.5
2018-07-20T05:41:03.532Z,8.2
2018-07-20T05:41:19.953Z,7.7
2018-07-20T05:41:36.378Z,7.6
2018-07-20T05:41:52.799Z,7.7
2018-07-20T05:42:09.222Z,7.7
2018-07-20T05:42:25.642Z,7.9
2018-07-20T05:42:42.065Z,8.1
2018-07-20T05:42:58.492Z,8.4
2018-07-20T05:43:14.917Z,8.5
2018-07-20T05:43:31.379Z,8.3
2018-07-20T05:43:47.803Z,8
2018-07-20T05:44:04.292Z,8.3
2018-07-20T05:44:20.650Z,8.7
2018-07-20T05:44:37.076Z,8.9
2018-07-20T05:44:53.500Z,9
2018-07-20T05:45:09.923Z,8.5
2018-07-20T05:45:26.361Z,8.6
2018-07-20T05:45:42.789Z,8.8
2018-07-20T05:45:59.199Z,8.9
2018-07-20T05:46:15.624Z,8.9
2018-07-20T05:46:32.046Z,8.9
2018-07-20T05:46:48.469Z,9.1
2018-07-20T05:47:04.892Z,9.1
2018-07-20T05:47:21.316Z,9
2018-07-20T05:47:37.737Z,8.9
2018-07-20T05:47:54.159Z,8.9
2018-07-20T05:48:10.583Z,8.7
2018-07-20T05:48:27.024Z,8.8
2018-07-20T05:48:43.454Z,8.9
2018-07-20T05:48:59.875Z,8.3
2018-07-20T05:49:16.300Z,8.1
2018-07-20T05:49:32.720Z,8.2
2018-07-20T05:49:50.135Z,8.3
2018-07-20T05:50:06.557Z,8.2
2018-07-20T05:50:22.978Z,8.4
2018-07-20T05:50:39.401Z,8.3
2018-07-20T05:50:55.826Z,8.4
2018-07-20T05:51:12.249Z,8.7
2018-07-20T05:51:28.670Z,8.8
2018-07-20T05:51:45.095Z,8.8
2018-07-20T05:52:01.515Z,8.8
2018-07-20T05:52:17.938Z,8.8
2018-07-20T05:52:34.361Z,8.6
2018-07-20T05:52:50.786Z,8.4
2018-07-20T05:53:07.210Z,8.5
2018-07-20T05:53:23.656Z,8.3
2018-07-20T05:53:40.083Z,8.2
2018-07-20T05:53:56.502Z,8.4
2018-07-20T05:54:12.923Z,8.3
2018-07-20T05:54:29.347Z,8.3
2018-07-20T05:54:45.774Z,7.8
2018-07-20T05:55:02.199Z,8.1
2018-07-20T05:55:18.622Z,8.2
2018-07-20T05:55:35.050Z,8.2
2018-07-20T05:55:51.471Z,8.4
2018-07-20T05:56:07.895Z,7.9
2018-07-20T05:56:24.327Z,8
2018-07-20T05:56:40.752Z,8.2
2018-07-20T05:56:57.180Z,8.6
2018-07-20T05:57:13.604Z,8.3
2018-07-20T05:57:30.026Z,7.8
2018-07-20T05:57:46.449Z,7.9
2018-07-20T05:58:02.873Z,8.3
2018-07-20T05:58:19.298Z,8.4
2018-07-20T05:58:35.719Z,8.8
2018-07-20T05:58:52.158Z,8.5
2018-07-20T05:59:08.588Z,8.3
2018-07-20T05:59:25.008Z,8.1
2018-07-20T05:59:41.432Z,7.9
2018-07-20T05:59:57.859Z,7.8
2018-07-20T06:00:14.281Z,7.9
2018-07-20T06:00:30.707Z,8.3
2018-07-20T06:00:47.133Z,8.6
2018-07-20T06:01:03.557Z,8.3
2018-07-20T06:01:19.983Z,8.1
2018-07-20T06:01:36.406Z,8.1
2018-07-20T06:01:52.828Z,8.1
2018-07-20T06:02:09.251Z,7.8
2018-07-20T06:02:25.676Z,8.1
2018-07-20T06:02:42.102Z,8.3
2018-07-20T06:02:58.527Z,8.2
2018-07-20T06:03:15.941Z,7.9
2018-07-20T06:03:32.367Z,8.2
2018-07-20T06:03:48.847Z,7.9
2018-07-20T06:04:05.315Z,7.9
2018-07-20T06:04:21.672Z,7.8
2018-07-20T06:04:38.099Z,7.8
2018-07-20T06:04:54.524Z,8.1
2018-07-20T06:05:10.947Z,8
2018-07-20T06:05:27.372Z,7.8
2018-07-20T06:05:43.871Z,8.3
2018-07-20T06:06:00.216Z,9.1
2018-07-20T06:06:16.645Z,8.4
2018-07-20T06:06:33.063Z,8.1
2018-07-20T06:06:49.488Z,8.3
2018-07-20T06:07:05.908Z,8.3
2018-07-20T06:07:22.331Z,8.3
2018-07-20T06:07:38.769Z,8.7
2018-07-20T06:07:55.193Z,8.4
2018-07-20T06:08:11.641Z,8.3
2018-07-20T06:08:28.038Z,8.5
2018-07-20T06:08:44.478Z,8.6
2018-07-20T06:09:00.916Z,8.6
2018-07-20T06:09:17.343Z,8.9
2018-07-20T06:09:33.765Z,8.7
2018-07-20T06:09:50.189Z,8.1
2018-07-20T06:10:06.613Z,8.1
2018-07-20T06:10:23.037Z,7.7
2018-07-20T06:10:39.465Z,7.9
2018-07-20T06:10:55.892Z,8.4
2018-07-20T06:11:12.317Z,8.3
2018-07-20T06:11:28.741Z,8.5
2018-07-20T06:11:45.173Z,8.7
2018-07-20T06:12:01.598Z,9
2018-07-20T06:12:18.016Z,8.7
2018-07-20T06:12:34.437Z,8.6
2018-07-20T06:12:50.865Z,9.1
2018-07-20T06:13:07.318Z,9
2018-07-20T06:13:23.739Z,9.1
2018-07-20T06:13:40.163Z,9.2
2018-07-20T06:13:56.605Z,8.8
2018-07-20T06:14:13.143Z,8.7
2018-07-20T06:14:29.458Z,9.2
2018-07-20T06:14:45.884Z,9.4
2018-07-20T06:15:02.308Z,9.3
2018-07-20T06:15:18.727Z,9.6
2018-07-20T06:15:35.151Z,9.2
2018-07-20T06:15:51.574Z,9.4
2018-07-20T06:16:08.052Z,9.4
2018-07-20T06:16:24.477Z,9.3
2018-07-20T06:16:40.901Z,9
2018-07-20T06:16:57.328Z,8.6
2018-07-20T06:17:13.752Z,8.6
2018-07-20T06:17:30.177Z,9.1
2018-07-20T06:17:46.599Z,8.8
2018-07-20T06:18:03.027Z,8.8
2018-07-20T06:18:19.448Z,8.6
2018-07-20T06:18:35.869Z,8
2018-07-20T06:18:52.307Z,8.3
2018-07-20T06:19:08.756Z,8.4
2018-07-20T06:19:25.177Z,8
2018-07-20T06:19:41.600Z,7.8
2018-07-20T06:19:58.025Z,7.3
2018-07-20T06:20:14.449Z,7.6
2018-07-20T06:20:30.874Z,7.5
2018-07-20T06:20:47.299Z,7
2018-07-20T06:21:03.726Z,6.8
2018-07-20T06:21:20.146Z,6.4
2018-07-20T06:21:36.572Z,6.2
2018-07-20T06:21:52.982Z,6.5
2018-07-20T06:22:09.408Z,6.2
2018-07-20T06:22:25.834Z,6.6
2018-07-20T06:22:42.257Z,6.8
2018-07-20T06:22:58.680Z,7
2018-07-20T06:23:15.104Z,6.7
2018-07-20T06:23:31.556Z,6.3
2018-07-20T06:23:48.004Z,6.4
2018-07-20T06:24:04.395Z,6.6
2018-07-20T06:24:20.820Z,6.8
2018-07-20T06:24:37.243Z,6.7
2018-07-20T06:24:53.666Z,6
2018-07-20T06:25:10.095Z,5.9
2018-07-20T06:25:26.517Z,6
2018-07-20T06:25:42.940Z,6.1
2018-07-20T06:25:59.366Z,6.1
2018-07-20T06:26:15.785Z,6.1
2018-07-20T06:26:32.213Z,5.7
2018-07-20T06:26:48.638Z,6
2018-07-20T06:27:05.054Z,6.1
2018-07-20T06:27:21.481Z,6
2018-07-20T06:27:37.907Z,6.6
2018-07-20T06:27:54.324Z,6.5
2018-07-20T06:28:10.749Z,6.3
2018-07-20T06:28:27.175Z,6.7
2018-07-20T06:28:43.596Z,7.1
2018-07-20T06:29:00.023Z,7.4
2018-07-20T06:29:16.466Z,7.2
2018-07-20T06:29:32.898Z,6.9
2018-07-20T06:29:49.320Z,6.7
2018-07-20T06:30:05.743Z,6.1
2018-07-20T06:30:22.164Z,5.6
2018-07-20T06:30:38.588Z,5.6
2018-07-20T06:30:55.017Z,6.2
2018-07-20T06:31:11.446Z,6.6
2018-07-20T06:31:27.870Z,6.2
2018-07-20T06:31:44.294Z,5.7
2018-07-20T06:32:00.718Z,6.4
2018-07-20T06:32:17.142Z,7.1
2018-07-20T06:32:33.565Z,6.8
2018-07-20T06:32:49.989Z,6.3
2018-07-20T06:33:06.414Z,6
2018-07-20T06:33:22.836Z,5.9
2018-07-20T06:33:39.260Z,5.7
2018-07-20T06:33:55.683Z,5.8
2018-07-20T06:34:12.141Z,5.9
2018-07-20T06:34:28.569Z,6
2018-07-20T06:34:44.993Z,5.8
2018-07-20T06:35:01.416Z,5.5
2018-07-20T06:35:17.838Z,5.7
2018-07-20T06:35:34.264Z,5.6
2018-07-20T06:35:50.686Z,5.6
2018-07-20T06:36:07.132Z,5.8
2018-07-20T06:36:23.535Z,5.7
2018-07-20T06:36:39.954Z,5.9
2018-07-20T06:36:56.386Z,5.9
2018-07-20T06:37:12.810Z,5.7
2018-07-20T06:37:29.234Z,5.5
2018-07-20T06:37:45.656Z,5.5
2018-07-20T06:38:02.077Z,5.4
2018-07-20T06:38:18.511Z,5.6
2018-07-20T06:38:34.938Z,5.5
2018-07-20T06:38:51.363Z,5.6
2018-07-20T06:39:07.786Z,5.8
2018-07-20T06:39:24.230Z,5.5
2018-07-20T06:39:40.657Z,5.3
2018-07-20T06:39:57.084Z,5.6
2018-07-20T06:40:13.502Z,5.7
2018-07-20T06:40:29.926Z,6
2018-07-20T06:40:46.410Z,5.9
2018-07-20T06:41:02.778Z,5.8
2018-07-20T06:41:19.195Z,5.7
2018-07-20T06:41:35.617Z,5.6
2018-07-20T06:41:52.047Z,5.6
2018-07-20T06:42:08.474Z,6.2
2018-07-20T06:42:24.898Z,6.2
2018-07-20T06:42:41.321Z,5.8
2018-07-20T06:42:57.746Z,5.6
2018-07-20T06:43:14.168Z,5.7
2018-07-20T06:43:30.607Z,5.7
2018-07-20T06:43:47.030Z,5.6
2018-07-20T06:44:03.457Z,5.6
2018-07-20T06:44:19.917Z,5.5
2018-07-20T06:44:36.343Z,5.5
2018-07-20T06:44:52.768Z,5.4
2018-07-20T06:45:09.192Z,5.3
2018-07-20T06:45:25.614Z,5.5
2018-07-20T06:45:42.049Z,5.6
2018-07-20T06:45:58.485Z,5.7
2018-07-20T06:46:14.902Z,5.6
2018-07-20T06:46:31.323Z,5.5
2018-07-20T06:46:47.747Z,5.5
2018-07-20T06:47:04.172Z,5.4
2018-07-20T06:47:20.597Z,5.6
2018-07-20T06:47:37.023Z,5.5
2018-07-20T06:47:53.446Z,5.5
2018-07-20T06:48:09.871Z,5.6
2018-07-20T06:48:26.309Z,5.4
2018-07-20T06:48:43.719Z,5.5
2018-07-20T06:49:00.158Z,5.6
2018-07-20T06:49:16.585Z,5.6
2018-07-20T06:49:33.027Z,6
2018-07-20T06:49:49.492Z,6.6
2018-07-20T06:50:05.892Z,6.7
2018-07-20T06:50:22.311Z,6.3
2018-07-20T06:50:38.742Z,6.4
2018-07-20T06:50:55.165Z,6.3
2018-07-20T06:51:11.588Z,6.2
2018-07-20T06:51:28.010Z,5.8
2018-07-20T06:51:44.436Z,5.9
2018-07-20T06:52:00.863Z,5.6
2018-07-20T06:52:17.284Z,5.5
2018-07-20T06:52:33.768Z,5.8
2018-07-20T06:52:50.190Z,5.9
2018-07-20T06:53:06.606Z,5.7
2018-07-20T06:53:23.030Z,5.6
2018-07-20T06:53:39.455Z,5.5
2018-07-20T06:53:55.879Z,5.6
2018-07-20T06:54:12.301Z,5.7
2018-07-20T06:54:28.776Z,6.3
2018-07-20T06:54:45.168Z,6.6
2018-07-20T06:55:01.593Z,5.9
2018-07-20T06:55:18.020Z,5.6
2018-07-20T06:55:34.443Z,5.7
2018-07-20T06:55:50.874Z,5.6
2018-07-20T06:56:07.288Z,5.6
2018-07-20T06:56:23.722Z,5.6
2018-07-20T06:56:40.139Z,5.6
2018-07-20T06:56:56.563Z,5.6
2018-07-20T06:57:12.978Z,5.3
2018-07-20T06:57:29.397Z,5.2
2018-07-20T06:57:45.837Z,5.4
2018-07-20T06:58:02.244Z,5.2
2018-07-20T06:58:18.663Z,5.2
2018-07-20T06:58:35.090Z,5.5
2018-07-20T06:58:51.518Z,5.9
2018-07-20T06:59:07.946Z,6.2
2018-07-20T06:59:24.370Z,5.6
2018-07-20T06:59:41.801Z,5.4
2018-07-20T06:59:58.225Z,5.4
2018-07-20T07:00:14.654Z,5.2
2018-07-20T07:00:31.072Z,5.4
2018-07-20T07:00:47.496Z,5.2
2018-07-20T07:01:03.930Z,5.3
2018-07-20T07:01:20.340Z,5.6
2018-07-20T07:01:36.762Z,5.5
2018-07-20T07:01:53.185Z,5.6
2018-07-20T07:02:09.607Z,5.3
2018-07-20T07:02:26.030Z,5.5
2018-07-20T07:02:42.455Z,5.6
2018-07-20T07:02:58.881Z,5.5
2018-07-20T07:03:15.305Z,5.5
2018-07-20T07:03:31.732Z,5.4
2018-07-20T07:03:48.155Z,6
2018-07-20T07:04:04.574Z,6.2
2018-07-20T07:04:20.998Z,5.6
2018-07-20T07:04:37.442Z,5.5
2018-07-20T07:04:53.868Z,5.7
2018-07-20T07:05:10.293Z,5.6
2018-07-20T07:05:26.713Z,5.3
2018-07-20T07:05:43.136Z,5.6
2018-07-20T07:05:59.559Z,5.5
2018-07-20T07:06:15.986Z,5.4
2018-07-20T07:06:32.409Z,5.2
2018-07-20T07:06:48.845Z,5.3
2018-07-20T07:07:05.280Z,5.7
2018-07-20T07:07:21.702Z,5.4
2018-07-20T07:07:38.125Z,5.3
2018-07-20T07:07:54.536Z,5.1
2018-07-20T07:08:10.965Z,5.2
2018-07-20T07:08:27.385Z,5.2
2018-07-20T07:08:43.801Z,5
2018-07-20T07:09:00.227Z,5.2
2018-07-20T07:09:16.658Z,6.2
2018-07-20T07:09:33.114Z,6.5
2018-07-20T07:09:49.519Z,6.1
2018-07-20T07:10:05.946Z,5.8
2018-07-20T07:10:22.370Z,5.6
2018-07-20T07:10:38.798Z,5.9
2018-07-20T07:10:55.223Z,5.8
2018-07-20T07:11:11.643Z,5.5
2018-07-20T07:11:28.067Z,5.5
2018-07-20T07:11:44.489Z,5.5
2018-07-20T07:12:00.913Z,5.3
2018-07-20T07:12:17.337Z,5.2
2018-07-20T07:12:33.760Z,5.1
2018-07-20T07:12:50.183Z,5.1
2018-07-20T07:13:06.610Z,5.4
2018-07-20T07:13:23.029Z,5.5
2018-07-20T07:13:39.460Z,5.4
2018-07-20T07:13:55.875Z,5.3
2018-07-20T07:14:12.297Z,5.2
2018-07-20T07:14:28.722Z,5.2
2018-07-20T07:14:46.195Z,5.2
2018-07-20T07:15:02.577Z,5.4
2018-07-20T07:15:19.082Z,5.3
2018-07-20T07:15:35.419Z,5.3
2018-07-20T07:15:51.841Z,5.6
2018-07-20T07:16:08.264Z,5.8
2018-07-20T07:16:24.688Z,5.6
2018-07-20T07:16:41.110Z,5.6
2018-07-20T07:16:57.524Z,5.5
2018-07-20T07:17:13.946Z,5.6
2018-07-20T07:17:30.371Z,5.8
2018-07-20T07:17:46.796Z,5.9
2018-07-20T07:18:03.227Z,5.7
2018-07-20T07:18:19.643Z,5.7
2018-07-20T07:18:36.069Z,5.5
2018-07-20T07:18:52.490Z,5.5
2018-07-20T07:19:08.926Z,5.8
2018-07-20T07:19:25.356Z,5.4
2018-07-20T07:19:41.781Z,5.5
2018-07-20T07:19:58.234Z,5.7
2018-07-20T07:20:14.655Z,5.5
2018-07-20T07:20:31.079Z,5.4
2018-07-20T07:20:47.506Z,5.3
2018-07-20T07:21:03.926Z,5.2
2018-07-20T07:21:20.351Z,5.2
2018-07-20T07:21:36.776Z,5.1
2018-07-20T07:21:53.199Z,5.4
2018-07-20T07:22:09.663Z,5.7
2018-07-20T07:22:26.039Z,5.6
2018-07-20T07:22:42.461Z,5.6
2018-07-20T07:22:58.884Z,5.7
2018-07-20T07:23:15.307Z,5.4
2018-07-20T07:23:31.741Z,5.1
2018-07-20T07:23:48.154Z,5.2
2018-07-20T07:24:04.576Z,5.5
2018-07-20T07:24:21.004Z,5.7
2018-07-20T07:24:37.430Z,5.6
2018-07-20T07:24:53.869Z,5.8
2018-07-20T07:25:10.293Z,5.5
2018-07-20T07:25:26.718Z,5.4
2018-07-20T07:25:43.143Z,5.4
2018-07-20T07:25:59.676Z,5.4
2018-07-20T07:26:15.989Z,5.6
2018-07-20T07:26:32.412Z,5.5
2018-07-20T07:26:48.835Z,5.7
2018-07-20T07:27:05.272Z,5.6
2018-07-20T07:27:21.696Z,5.4
2018-07-20T07:27:38.125Z,5.9
2018-07-20T07:27:54.551Z,6.4
2018-07-20T07:28:10.973Z,6.2
2018-07-20T07:28:27.396Z,5.9
2018-07-20T07:28:43.820Z,5.9
2018-07-20T07:29:00.242Z,5.8
2018-07-20T07:29:16.795Z,5.8
2018-07-20T07:29:33.090Z,6.1
2018-07-20T07:29:49.534Z,6
2018-07-20T07:30:05.965Z,5.9
2018-07-20T07:30:22.386Z,5.7
2018-07-20T07:30:38.811Z,5.6
2018-07-20T07:30:55.257Z,5.8
2018-07-20T07:31:11.657Z,5.7
2018-07-20T07:31:28.081Z,6
2018-07-20T07:31:44.506Z,6.4
2018-07-20T07:32:00.950Z,6.4
2018-07-20T07:32:17.375Z,6.1
2018-07-20T07:32:33.799Z,6.1
2018-07-20T07:32:50.233Z,6.9
2018-07-20T07:33:06.648Z,7.2
2018-07-20T07:33:23.070Z,7.3
2018-07-20T07:33:39.496Z,7.5
2018-07-20T07:33:55.921Z,7.3
2018-07-20T07:34:12.343Z,7.3
2018-07-20T07:34:28.767Z,7.5
2018-07-20T07:34:45.195Z,6.9
2018-07-20T07:35:01.659Z,6.2
2018-07-20T07:35:18.085Z,6.2
2018-07-20T07:35:34.508Z,6
2018-07-20T07:35:50.986Z,5.8
2018-07-20T07:36:07.355Z,5.7
2018-07-20T07:36:23.780Z,5.7
2018-07-20T07:36:40.205Z,5.7
2018-07-20T07:36:56.630Z,5.6
2018-07-20T07:37:13.054Z,5.9
2018-07-20T07:37:29.483Z,6.1
2018-07-20T07:37:45.908Z,5.9
2018-07-20T07:38:02.339Z,5.7
2018-07-20T07:38:18.763Z,5.7
2018-07-20T07:38:35.186Z,5.6
2018-07-20T07:38:51.613Z,5.6
2018-07-20T07:39:08.038Z,5.6
2018-07-20T07:39:24.462Z,5.6
2018-07-20T07:39:40.887Z,5.8
2018-07-20T07:39:57.331Z,5.9
2018-07-20T07:40:13.751Z,5.8
2018-07-20T07:40:30.173Z,5.8
2018-07-20T07:40:46.600Z,5.9
2018-07-20T07:41:03.027Z,5.9
2018-07-20T07:41:19.455Z,5.8
2018-07-20T07:41:35.879Z,5.7
2018-07-20T07:41:52.307Z,5.8
2018-07-20T07:42:08.744Z,5.9
2018-07-20T07:42:26.147Z,5.6
2018-07-20T07:42:42.582Z,5.8
2018-07-20T07:42:59.019Z,6
2018-07-20T07:43:15.431Z,5.9
2018-07-20T07:43:31.855Z,5.7
2018-07-20T07:43:48.277Z,5.9
2018-07-20T07:44:04.733Z,5.8
2018-07-20T07:44:21.158Z,5.5
2018-07-20T07:44:37.585Z,6
2018-07-20T07:44:54.008Z,6
2018-07-20T07:45:10.460Z,6.1
2018-07-20T07:45:26.880Z,6.7
2018-07-20T07:45:43.304Z,6.6
2018-07-20T07:45:59.740Z,6
2018-07-20T07:46:16.166Z,6.2
2018-07-20T07:46:32.588Z,5.9
2018-07-20T07:46:49.013Z,5.7
2018-07-20T07:47:05.442Z,5.7
2018-07-20T07:47:21.866Z,5.6
2018-07-20T07:47:38.288Z,5.9
2018-07-20T07:47:54.718Z,6.3
2018-07-20T07:48:11.143Z,6.1
2018-07-20T07:48:27.571Z,5.8
2018-07-20T07:48:43.993Z,5.7
2018-07-20T07:49:00.424Z,5.5
2018-07-20T07:49:16.895Z,5.5
2018-07-20T07:49:33.266Z,5.8
2018-07-20T07:49:49.691Z,5.8
2018-07-20T07:50:06.133Z,5.9
2018-07-20T07:50:22.556Z,5.9
2018-07-20T07:50:38.991Z,5.9
2018-07-20T07:50:55.402Z,5.8
2018-07-20T07:51:12.820Z,5.7
2018-07-20T07:51:29.245Z,5.7
2018-07-20T07:51:45.669Z,5.6
2018-07-20T07:52:02.093Z,5.7
2018-07-20T07:52:18.518Z,5.6
2018-07-20T07:52:34.940Z,6
2018-07-20T07:52:51.362Z,6
2018-07-20T07:53:07.787Z,5.7
2018-07-20T07:53:24.208Z,6.1
2018-07-20T07:53:40.633Z,5.9
2018-07-20T07:53:57.061Z,5.9
2018-07-20T07:54:13.486Z,6.2
2018-07-20T07:54:29.910Z,6
2018-07-20T07:54:46.372Z,5.9
2018-07-20T07:55:02.761Z,5.6
2018-07-20T07:55:19.201Z,6
2018-07-20T07:55:35.626Z,6.1
2018-07-20T07:55:52.047Z,5.7
2018-07-20T07:56:08.470Z,7.4
2018-07-20T07:56:24.896Z,8.7
2018-07-20T07:56:41.317Z,7.9
2018-07-20T07:56:57.762Z,6.8
2018-07-20T07:57:14.187Z,6.2
2018-07-20T07:57:30.615Z,6.2
2018-07-20T07:57:47.037Z,6
2018-07-20T07:58:03.463Z,6.1
2018-07-20T07:58:19.887Z,6.3
2018-07-20T07:58:36.308Z,6.2
2018-07-20T07:58:52.736Z,6.2
2018-07-20T07:59:09.161Z,6.1
2018-07-20T07:59:25.586Z,6.2
2018-07-20T07:59:42.009Z,6.2
2018-07-20T07:59:58.432Z,6
2018-07-20T08:00:14.878Z,6.1
2018-07-20T08:00:31.327Z,6.5
2018-07-20T08:00:48.078Z,6.3
2018-07-20T08:01:04.501Z,6.1
2018-07-20T08:01:20.925Z,6
2018-07-20T08:01:37.348Z,5.8
2018-07-20T08:01:53.771Z,6.1
2018-07-20T08:02:10.200Z,6
2018-07-20T08:02:26.625Z,5.8
2018-07-20T08:02:43.051Z,5.8
2018-07-20T08:02:59.487Z,6.1
2018-07-20T08:03:15.948Z,6
2018-07-20T08:03:32.387Z,5.7
2018-07-20T08:03:48.744Z,6
2018-07-20T08:04:05.177Z,6.1
2018-07-20T08:04:21.602Z,5.8
2018-07-20T08:04:38.026Z,5.6
2018-07-20T08:04:54.449Z,5.3
2018-07-20T08:05:10.900Z,5.6
2018-07-20T08:05:27.324Z,5.8
2018-07-20T08:05:43.758Z,6
2018-07-20T08:06:00.175Z,6
2018-07-20T08:06:16.611Z,6
2018-07-20T08:06:33.023Z,6.1
2018-07-20T08:06:49.446Z,5.9
2018-07-20T08:07:05.893Z,5.7
2018-07-20T08:07:22.305Z,5.8
2018-07-20T08:07:38.723Z,5.5
2018-07-20T08:07:55.147Z,5.5
2018-07-20T08:08:12.559Z,5.8
2018-07-20T08:08:28.985Z,5.8
2018-07-20T08:08:45.407Z,5.9
2018-07-20T08:09:01.840Z,5.6
2018-07-20T08:09:18.257Z,5.2
2018-07-20T08:09:34.688Z,5.4
2018-07-20T08:09:51.165Z,5.5
2018-07-20T08:10:07.834Z,5.5
2018-07-20T08:10:24.006Z,5.3
2018-07-20T08:10:40.401Z,5
2018-07-20T08:10:56.825Z,5.3
2018-07-20T08:11:13.249Z,5.4
2018-07-20T08:11:29.675Z,5.5
2018-07-20T08:11:46.097Z,5.6
2018-07-20T08:12:02.522Z,5.6
2018-07-20T08:12:18.948Z,5.6
2018-07-20T08:12:35.372Z,5.2
2018-07-20T08:12:52.785Z,5.3
2018-07-20T08:13:09.213Z,5.4
2018-07-20T08:13:25.637Z,5.2
2018-07-20T08:13:42.051Z,5.3
2018-07-20T08:13:58.476Z,5.5
2018-07-20T08:14:14.903Z,5.4
2018-07-20T08:14:31.335Z,5.1
2018-07-20T08:14:47.750Z,5.4
2018-07-20T08:15:04.172Z,5.3
2018-07-20T08:15:20.609Z,5.4
2018-07-20T08:15:37.037Z,5.3
2018-07-20T08:15:53.483Z,5
2018-07-20T08:16:09.885Z,5.1
2018-07-20T08:16:26.309Z,5.3
2018-07-20T08:16:42.734Z,5.5
2018-07-20T08:16:59.160Z,5.2
2018-07-20T08:17:15.600Z,5.3
2018-07-20T08:17:32.024Z,5.5
2018-07-20T08:17:48.449Z,5.2
2018-07-20T08:18:04.878Z,5.2
2018-07-20T08:18:21.298Z,5.3
2018-07-20T08:18:37.722Z,5.3
2018-07-20T08:18:54.150Z,5.2
2018-07-20T08:19:10.581Z,5.2
2018-07-20T08:19:27.006Z,5.5
2018-07-20T08:19:43.433Z,5.5
2018-07-20T08:19:59.858Z,5.3
2018-07-20T08:20:17.308Z,5.3
2018-07-20T08:20:33.735Z,5.1
2018-07-20T08:20:50.157Z,5.2
2018-07-20T08:21:06.582Z,5.2
2018-07-20T08:21:23.005Z,5.2
2018-07-20T08:21:40.422Z,5.1
2018-07-20T08:21:56.854Z,5.2
2018-07-20T08:22:13.278Z,4.9
2018-07-20T08:22:29.700Z,4.9
2018-07-20T08:22:46.140Z,4.9
2018-07-20T08:23:03.541Z,5.2
2018-07-20T08:23:19.968Z,5.2
2018-07-20T08:23:36.392Z,5.2
2018-07-20T08:23:52.820Z,5.4
2018-07-20T08:24:09.244Z,5.3
2018-07-20T08:24:25.669Z,5
2018-07-20T08:24:42.094Z,5
2018-07-20T08:24:58.517Z,5.3
2018-07-20T08:25:14.960Z,5
2018-07-20T08:25:31.387Z,5
2018-07-20T08:25:47.813Z,4.9
2018-07-20T08:26:04.235Z,4.8
2018-07-20T08:26:20.659Z,5.2
2018-07-20T08:26:37.086Z,4.9
2018-07-20T08:26:53.510Z,4.7
2018-07-20T08:27:09.937Z,4.9
2018-07-20T08:27:26.363Z,5.3
2018-07-20T08:27:42.788Z,5.4
2018-07-20T08:27:59.214Z,5.1
2018-07-20T08:28:15.641Z,4.9
2018-07-20T08:28:32.063Z,5.2
2018-07-20T08:28:48.489Z,5.2
2018-07-20T08:29:04.923Z,5.1
2018-07-20T08:29:21.348Z,5
2018-07-20T08:29:37.754Z,5.1
2018-07-20T08:29:55.170Z,5.2
2018-07-20T08:30:11.591Z,5.2
2018-07-20T08:30:28.032Z,5.3
2018-07-20T08:30:44.457Z,5.3
2018-07-20T08:31:00.884Z,5.4
2018-07-20T08:31:17.306Z,5.1
2018-07-20T08:31:33.731Z,4.8
2018-07-20T08:31:50.158Z,4.8
2018-07-20T08:32:06.580Z,5.3
2018-07-20T08:32:23.005Z,5.2
2018-07-20T08:32:39.432Z,5
2018-07-20T08:32:55.858Z,5.1
2018-07-20T08:33:12.283Z,5.1
2018-07-20T08:33:28.705Z,5.2
2018-07-20T08:33:45.128Z,5.1
2018-07-20T08:34:01.554Z,5.1
2018-07-20T08:34:17.978Z,5.1
2018-07-20T08:34:34.399Z,5.1
2018-07-20T08:34:50.823Z,5
2018-07-20T08:35:07.248Z,5
2018-07-20T08:35:23.675Z,5.2
2018-07-20T08:35:40.118Z,5.3
2018-07-20T08:35:56.542Z,5.2
2018-07-20T08:36:12.968Z,4.9
2018-07-20T08:36:29.395Z,4.9
2018-07-20T08:36:45.822Z,4.8
2018-07-20T08:37:02.245Z,5
2018-07-20T08:37:18.658Z,5
2018-07-20T08:37:35.082Z,5.1
2018-07-20T08:37:51.506Z,5.1
2018-07-20T08:38:07.923Z,4.8
2018-07-20T08:38:24.348Z,4.7
2018-07-20T08:38:40.780Z,4.6
2018-07-20T08:38:57.199Z,4.7
2018-07-20T08:39:14.614Z,4.9
2018-07-20T08:39:31.040Z,5.1
2018-07-20T08:39:47.463Z,5.4
2018-07-20T08:40:03.890Z,5.3
2018-07-20T08:40:20.313Z,5.7
2018-07-20T08:40:36.772Z,6.3
2018-07-20T08:40:53.197Z,6.3
2018-07-20T08:41:09.642Z,6.1
2018-07-20T08:41:26.049Z,5.4
2018-07-20T08:41:42.471Z,5.3
2018-07-20T08:41:58.897Z,5.5
2018-07-20T08:42:15.323Z,5.1
2018-07-20T08:42:31.754Z,5
2018-07-20T08:42:48.178Z,5.2
2018-07-20T08:43:04.602Z,5
2018-07-20T08:43:21.026Z,4.8
2018-07-20T08:43:37.453Z,5
2018-07-20T08:43:53.879Z,5.6
2018-07-20T08:44:10.301Z,6.2
2018-07-20T08:44:26.725Z,5.8
2018-07-20T08:44:43.157Z,5.3
2018-07-20T08:44:59.576Z,5.4
2018-07-20T08:45:16.012Z,5.4
2018-07-20T08:45:32.439Z,5.2
2018-07-20T08:45:48.882Z,5.3
2018-07-20T08:46:05.321Z,4.9
2018-07-20T08:46:21.735Z,4.7
2018-07-20T08:46:38.300Z,4.9
2018-07-20T08:46:54.584Z,4.8
2018-07-20T08:47:11.015Z,4.9
2018-07-20T08:47:27.457Z,5
2018-07-20T08:47:43.864Z,4.6
2018-07-20T08:48:00.288Z,4.8
2018-07-20T08:48:16.726Z,4.7
2018-07-20T08:48:33.143Z,5
2018-07-20T08:48:49.563Z,5.1
2018-07-20T08:49:05.988Z,4.9
2018-07-20T08:49:22.411Z,5
2018-07-20T08:49:38.834Z,5
2018-07-20T08:49:55.263Z,5.1
2018-07-20T08:50:11.703Z,5.1
2018-07-20T08:50:28.124Z,4.9
2018-07-20T08:50:44.563Z,4.9
2018-07-20T08:51:00.988Z,4.9
2018-07-20T08:51:17.416Z,5.1
2018-07-20T08:51:33.839Z,5.2
2018-07-20T08:51:50.262Z,4.9
2018-07-20T08:52:06.687Z,4.9
2018-07-20T08:52:23.110Z,4.9
2018-07-20T08:52:39.538Z,4.8
2018-07-20T08:52:55.962Z,5
2018-07-20T08:53:12.389Z,5.1
2018-07-20T08:53:28.814Z,5.1
2018-07-20T08:53:45.242Z,5
2018-07-20T08:54:02.706Z,5
2018-07-20T08:54:19.081Z,5.1
2018-07-20T08:54:35.506Z,5.2
2018-07-20T08:54:51.935Z,4.8
2018-07-20T08:55:08.357Z,4.9
2018-07-20T08:55:24.782Z,4.9
2018-07-20T08:55:41.225Z,5
2018-07-20T08:55:57.646Z,5
2018-07-20T08:56:14.075Z,5
2018-07-20T08:56:30.496Z,5
2018-07-20T08:56:46.919Z,4.8
2018-07-20T08:57:03.346Z,4.5
2018-07-20T08:57:19.776Z,4.6
2018-07-20T08:57:36.197Z,4.6
2018-07-20T08:57:52.622Z,4.5
2018-07-20T08:58:09.046Z,4.6
2018-07-20T08:58:25.472Z,4.7
2018-07-20T08:58:41.895Z,4.9
2018-07-20T08:58:58.323Z,4.8
2018-07-20T08:59:14.732Z,4.8
2018-07-20T08:59:31.161Z,5.1
2018-07-20T08:59:47.583Z,5
2018-07-20T09:00:04.062Z,4.7
2018-07-20T09:00:20.426Z,4.8
2018-07-20T09:00:36.860Z,5
2018-07-20T09:00:53.297Z,4.8
2018-07-20T09:01:09.725Z,4.6
2018-07-20T09:01:26.152Z,4.7
2018-07-20T09:01:42.575Z,4.6
2018-07-20T09:01:59.002Z,4.4
2018-07-20T09:02:15.426Z,4.5
2018-07-20T09:02:31.850Z,4.7
2018-07-20T09:02:48.276Z,4.6
2018-07-20T09:03:04.700Z,4.6
2018-07-20T09:03:22.114Z,4.5
2018-07-20T09:03:38.643Z,4.7
2018-07-20T09:03:54.968Z,4.8
2018-07-20T09:04:11.396Z,4.6
2018-07-20T09:04:27.812Z,4.6
2018-07-20T09:04:44.247Z,5
2018-07-20T09:05:00.678Z,4.9
2018-07-20T09:05:17.124Z,4.7
2018-07-20T09:05:33.549Z,4.5
2018-07-20T09:05:49.975Z,4.7
2018-07-20T09:06:06.420Z,4.6
2018-07-20T09:06:22.853Z,4.7
2018-07-20T09:06:39.270Z,4.7
2018-07-20T09:06:55.694Z,4.7
2018-07-20T09:07:13.111Z,5
2018-07-20T09:07:29.535Z,4.9
2018-07-20T09:07:45.957Z,4.9
2018-07-20T09:08:02.380Z,5.1
2018-07-20T09:08:18.798Z,4.9
2018-07-20T09:08:35.222Z,4.6
2018-07-20T09:08:51.647Z,4.7
2018-07-20T09:09:08.075Z,4.7
2018-07-20T09:09:24.497Z,4.7
2018-07-20T09:09:40.920Z,4.6
2018-07-20T09:09:57.346Z,4.8
2018-07-20T09:10:13.771Z,4.9
2018-07-20T09:10:30.194Z,4.6
2018-07-20T09:10:46.620Z,4.7
2018-07-20T09:11:03.082Z,4.6
2018-07-20T09:11:19.509Z,4.4
2018-07-20T09:11:35.930Z,4.3
2018-07-20T09:11:52.359Z,4.8
2018-07-20T09:12:08.782Z,4.9
2018-07-20T09:12:25.206Z,4.7
2018-07-20T09:12:41.629Z,4.7
2018-07-20T09:12:58.056Z,4.7
2018-07-20T09:13:14.483Z,4.5
2018-07-20T09:13:30.954Z,4.4
2018-07-20T09:13:47.449Z,4.6
2018-07-20T09:14:03.759Z,4.7
2018-07-20T09:14:20.184Z,4.6
2018-07-20T09:14:36.608Z,4.6
2018-07-20T09:14:53.033Z,4.7
2018-07-20T09:15:09.459Z,4.7
2018-07-20T09:15:25.884Z,4.5
2018-07-20T09:15:42.307Z,4.9
2018-07-20T09:15:58.741Z,5
2018-07-20T09:16:15.201Z,4.8
2018-07-20T09:16:31.628Z,4.9
2018-07-20T09:16:48.052Z,4.7
2018-07-20T09:17:04.478Z,4.8